Airport ICAO


14:36 UTC

10°C

Broken clouds


An affordable passengers' Moving Map for your aircraft. Made for the iPad and the iPhone
More information here

LFPG Charles De Gaulle


Paris FRANCE   VFR


METAR LFPG 241430Z 29003KT 9999 FEW015 SCT033 BKN220 10/07 Q1012 NOSIG 0h06min

TAF LFPG 241100Z 2412/2518 26010KT 9999 BKN010 BECMG 2412/2414 SCT020 BKN050 PROB40 TEMPO 2501/2506 3000 -SHRA BKN010TCU PROB30 TEMPO 2512/2515 4000 -SHRA SCT015CB TX11/2415Z TN03/2518Z 3h36min





NOTAMS

OPEN